Time;durP1;ratioP1;P1;durP2;ratioP2;P2;SDS_P1;SDS_P2;PMS_P1;PMS_P2;Temp;Humidity;BMP_temperature;BMP_pressure;BME280_temperature;BME280_humidity;BME280_pressure;Samples;Min_cycle;Max_cycle;Signal;HPM_P1;HPM_P2
2023/04/20 00:00:31;;;;;;;;;;;;;;;11.11;64.71;100335.34;5426705;32;35639;-71
2023/04/20 00:03:34;;;;;;;;;;;;;;;11.42;62.57;100335.81;5446094;32;34941;-64
2023/04/20 00:06:36;;;;;;;;;;;;;;;10.80;65.16;100333.13;5434952;32;35291;-76
2023/04/20 00:09:38;;;;;;;;;;;;;;;10.62;66.19;100333.00;5408786;32;34135;-76
2023/04/20 00:12:40;;;;;;;;;;;;;;;11.38;63.43;100333.28;5422893;32;35297;-65
2023/04/20 00:15:42;;;;;;;;;;;;;;;11.22;63.45;100334.88;5441321;32;45167;-63
2023/04/20 00:18:45;;;;;;;;;;;;;;;10.76;66.17;100334.19;5448882;32;34485;-64
2023/04/20 00:21:47;;;;;;;;;;;;;;;11.18;65.66;100340.34;5433370;32;34959;-77
2023/04/20 00:24:49;;;;;;;;;;;;;;;10.89;66.18;100334.53;5449110;32;34441;-76
2023/04/20 00:27:50;;;;;;;;;;;;;;;11.03;65.91;100326.91;5426284;32;34478;-64
2023/04/20 00:30:52;;;;;;;;;;;;;;;11.23;65.17;100318.19;5423554;32;35664;-63
2023/04/20 00:33:54;;;;;;;;;;;;;;;10.80;67.22;100327.84;5404762;32;35805;-64
2023/04/20 00:36:56;;;;;;;;;;;;;;;11.37;64.71;100328.97;5421997;32;34888;-63
2023/04/20 00:39:58;;;;;;;;;;;;;;;10.75;66.53;100321.91;5427890;32;35420;-64
2023/04/20 00:43:10;;;;;;;;;;;;;;;11.43;63.87;100314.69;5441044;32;34878;-76
2023/04/20 00:46:12;;;;;;;;;;;;;;;11.41;63.09;100318.31;5430258;32;45426;-78
2023/04/20 00:49:14;;;;;;;;;;;;;;;10.78;65.78;100319.19;5424498;32;36566;-64
2023/04/20 00:52:16;;;;;;;;;;;;;;;10.91;65.11;100318.69;5419700;32;34879;-76
2023/04/20 00:55:18;;;;;;;;;;;;;;;11.26;64.19;100323.28;5422336;32;35495;-76
2023/04/20 00:58:20;;;;;;;;;;;;;;;11.62;63.14;100320.84;5437031;32;34366;-64
2023/04/20 01:01:22;;;;;;;;;;;;;;;11.58;62.77;100313.16;5441659;32;34677;-77
2023/04/20 01:04:25;;;;;;;;;;;;;;;10.99;65.16;100316.59;5425985;32;35187;-65
2023/04/20 01:07:28;;;;;;;;;;;;;;;11.20;65.23;100312.19;5430727;32;34943;-64
2023/04/20 01:10:30;;;;;;;;;;;;;;;11.98;61.95;100304.34;5425903;32;34328;-78
2023/04/20 01:13:32;;;;;;;;;;;;;;;10.73;66.05;100313.25;5421796;32;34340;-64
2023/04/20 01:16:35;;;;;;;;;;;;;;;12.32;60.98;100303.62;5429789;32;36805;-64
2023/04/20 01:19:37;;;;;;;;;;;;;;;11.20;64.04;100315.66;5420153;32;34795;-76
2023/04/20 01:22:43;;;;;;;;;;;;;;;11.66;63.04;100309.28;5445974;32;34805;-64
2023/04/20 01:25:45;;;;;;;;;;;;;;;10.99;64.23;100304.28;5422824;32;45687;-76
2023/04/20 01:28:47;;;;;;;;;;;;;;;10.83;65.41;100314.59;5420537;32;35571;-77
2023/04/20 01:31:49;;;;;;;;;;;;;;;10.94;64.83;100301.00;5415750;32;34864;-64
2023/04/20 01:34:51;;;;;;;;;;;;;;;10.97;65.79;100310.53;5439735;32;35153;-65
2023/04/20 01:37:52;;;;;;;;;;;;;;;10.57;66.84;100309.56;5449466;32;35069;-66
2023/04/20 01:40:54;;;;;;;;;;;;;;;10.75;67.05;100311.41;5439915;32;35514;-72
2023/04/20 01:43:56;;;;;;;;;;;;;;;10.63;67.03;100309.31;5432990;32;34495;-63
2023/04/20 01:46:58;;;;;;;;;;;;;;;10.58;67.41;100309.47;5422469;32;35291;-64
2023/04/20 01:50:00;;;;;;;;;;;;;;;10.46;68.45;100306.50;5442114;32;35376;-73
2023/04/20 01:53:02;;;;;;;;;;;;;;;10.69;67.75;100301.19;5424761;32;35131;-64
2023/04/20 01:56:05;;;;;;;;;;;;;;;10.70;68.37;100308.13;5420073;32;34441;-65
2023/04/20 01:59:07;;;;;;;;;;;;;;;10.62;68.37;100307.56;5421899;32;34385;-64
2023/04/20 02:02:08;;;;;;;;;;;;;;;10.44;69.40;100305.72;5423538;32;35249;-77
2023/04/20 02:05:10;;;;;;;;;;;;;;;10.93;66.48;100315.06;5438404;32;45089;-64
2023/04/20 02:08:12;;;;;;;;;;;;;;;11.49;64.06;100303.88;5415577;32;34203;-78
2023/04/20 02:11:14;;;;;;;;;;;;;;;11.12;65.80;100312.50;5427652;32;35677;-64
2023/04/20 02:14:16;;;;;;;;;;;;;;;10.29;69.37;100312.41;5423307;32;35455;-64
2023/04/20 02:17:18;;;;;;;;;;;;;;;10.98;66.54;100312.25;5430509;32;35946;-77
2023/04/20 02:20:20;;;;;;;;;;;;;;;10.49;67.58;100311.59;5445731;32;34773;-65
2023/04/20 02:23:22;;;;;;;;;;;;;;;10.44;67.79;100289.94;5432186;32;34679;-65
2023/04/20 02:26:24;;;;;;;;;;;;;;;11.80;62.45;100308.66;5446494;32;34408;-75
2023/04/20 02:29:26;;;;;;;;;;;;;;;11.45;62.80;100310.19;5430118;32;34859;-66
2023/04/20 02:32:28;;;;;;;;;;;;;;;11.61;62.67;100311.25;5434607;32;34731;-64
2023/04/20 02:35:30;;;;;;;;;;;;;;;10.43;66.00;100310.09;5440795;32;34989;-76
2023/04/20 02:38:32;;;;;;;;;;;;;;;10.80;65.84;100317.34;5439808;32;35262;-65
2023/04/20 02:41:34;;;;;;;;;;;;;;;10.57;66.15;100306.94;5447305;32;37629;-77
2023/04/20 02:44:35;;;;;;;;;;;;;;;10.69;65.79;100313.44;5438558;32;34969;-77
2023/04/20 02:47:37;;;;;;;;;;;;;;;10.23;67.99;100317.88;5446389;32;35780;-78
2023/04/20 02:50:40;;;;;;;;;;;;;;;10.29;67.49;100292.25;5434942;32;34964;-77
2023/04/20 02:53:42;;;;;;;;;;;;;;;10.54;66.34;100318.41;5427467;32;44876;-64
2023/04/20 02:56:44;;;;;;;;;;;;;;;10.25;67.73;100321.34;5428660;32;36174;-76
2023/04/20 02:59:46;;;;;;;;;;;;;;;10.22;68.34;100324.87;5419319;32;35557;-78
2023/04/20 03:02:48;;;;;;;;;;;;;;;9.95;69.73;100324.16;5430368;32;34934;-78
2023/04/20 03:05:50;;;;;;;;;;;;;;;10.30;68.13;100330.75;5423178;32;35799;-77
2023/04/20 03:08:52;;;;;;;;;;;;;;;10.11;68.56;100327.09;5430561;32;36168;-71
2023/04/20 03:11:54;;;;;;;;;;;;;;;10.22;68.49;100335.37;5408400;32;34731;-64
2023/04/20 03:14:56;;;;;;;;;;;;;;;10.39;67.00;100332.16;5422785;32;35788;-77
2023/04/20 03:17:58;;;;;;;;;;;;;;;10.36;67.23;100326.16;5428032;32;35140;-77
2023/04/20 03:21:00;;;;;;;;;;;;;;;11.13;64.16;100335.25;5433204;32;34883;-64
2023/04/20 03:24:02;;;;;;;;;;;;;;;11.74;62.00;100327.34;5427309;32;35155;-72
2023/04/20 03:27:04;;;;;;;;;;;;;;;11.56;62.57;100333.44;5424712;32;35342;-65
2023/04/20 03:30:07;;;;;;;;;;;;;;;10.29;66.21;100330.78;5416774;32;35470;-77
2023/04/20 03:33:09;;;;;;;;;;;;;;;11.43;63.31;100324.38;5411911;32;34635;-65
2023/04/20 03:36:11;;;;;;;;;;;;;;;10.59;66.08;100323.47;5441691;32;45658;-76
2023/04/20 03:39:13;;;;;;;;;;;;;;;10.66;64.93;100314.44;5430840;32;36564;-64
2023/04/20 03:42:15;;;;;;;;;;;;;;;11.22;63.60;100342.78;5404764;32;35777;-64
2023/04/20 03:45:17;;;;;;;;;;;;;;;10.34;66.50;100341.13;5429771;32;35802;-78
2023/04/20 03:48:19;;;;;;;;;;;;;;;10.02;68.80;100337.91;5436541;32;34666;-64
2023/04/20 03:51:21;;;;;;;;;;;;;;;10.55;66.62;100338.50;5428139;32;34751;-78
2023/04/20 03:54:23;;;;;;;;;;;;;;;10.28;67.49;100342.22;5434538;32;34556;-64
2023/04/20 03:57:25;;;;;;;;;;;;;;;10.15;67.46;100348.81;5404608;32;35244;-77
2023/04/20 04:00:27;;;;;;;;;;;;;;;10.11;67.67;100345.47;5425822;32;35501;-64
2023/04/20 04:03:29;;;;;;;;;;;;;;;9.71;69.05;100361.81;5422149;32;35293;-65
2023/04/20 04:06:31;;;;;;;;;;;;;;;10.12;67.99;100343.69;5426109;32;35362;-72
2023/04/20 04:09:33;;;;;;;;;;;;;;;10.64;66.21;100339.94;5419363;32;35544;-76
2023/04/20 04:12:35;;;;;;;;;;;;;;;10.46;66.61;100331.00;5430382;32;34860;-77
2023/04/20 04:15:37;;;;;;;;;;;;;;;10.26;67.65;100350.16;5423138;32;36669;-65
2023/04/20 04:18:42;;;;;;;;;;;;;;;10.46;67.11;100345.91;5428496;32;34604;-78
2023/04/20 04:21:43;;;;;;;;;;;;;;;10.65;66.27;100346.88;5436742;32;44480;-66
2023/04/20 04:24:45;;;;;;;;;;;;;;;10.71;65.78;100341.38;5423809;32;35412;-76
2023/04/20 04:27:47;;;;;;;;;;;;;;;11.46;64.00;100346.13;5427517;32;35308;-65
2023/04/20 04:30:50;;;;;;;;;;;;;;;11.08;64.69;100342.50;5397357;32;34732;-76
2023/04/20 04:33:52;;;;;;;;;;;;;;;11.47;63.57;100352.28;5427813;32;35170;-65
2023/04/20 04:36:54;;;;;;;;;;;;;;;11.38;63.88;100349.09;5430989;32;34842;-71
2023/04/20 04:39:57;;;;;;;;;;;;;;;12.52;59.37;100342.22;5444444;32;35324;-65
2023/04/20 04:42:59;;;;;;;;;;;;;;;11.11;63.86;100351.12;5427710;32;34977;-76
2023/04/20 04:46:11;;;;;;;;;;;;;;;11.70;63.04;100349.47;5425444;32;35398;-73
2023/04/20 04:49:13;;;;;;;;;;;;;;;11.83;61.35;100340.12;5445427;32;45950;-77
2023/04/20 04:52:16;;;;;;;;;;;;;;;12.12;60.98;100343.22;5435778;32;34161;-65
2023/04/20 04:55:18;;;;;;;;;;;;;;;12.66;58.36;100341.53;5434840;32;35777;-66
2023/04/20 04:58:20;;;;;;;;;;;;;;;12.88;58.80;100351.88;5441641;32;34752;-77
2023/04/20 05:01:22;;;;;;;;;;;;;;;12.91;57.48;100349.13;5441250;32;34761;-75
2023/04/20 05:04:24;;;;;;;;;;;;;;;13.35;56.68;100352.19;5443202;32;35336;-76
2023/04/20 05:07:26;;;;;;;;;;;;;;;13.09;57.40;100355.28;5425144;32;35253;-79
2023/04/20 05:10:28;;;;;;;;;;;;;;;13.95;54.28;100343.78;5438565;32;35649;-65
2023/04/20 05:13:30;;;;;;;;;;;;;;;13.54;55.96;100358.25;5426642;32;34842;-65
2023/04/20 05:16:32;;;;;;;;;;;;;;;13.76;55.41;100362.37;5448729;32;34077;-72
2023/04/20 05:19:34;;;;;;;;;;;;;;;14.02;54.80;100361.84;5440437;32;34945;-65
2023/04/20 05:22:36;;;;;;;;;;;;;;;15.55;50.15;100355.81;5432528;32;36233;-64
2023/04/20 05:25:38;;;;;;;;;;;;;;;15.84;48.40;100340.84;5447361;32;35402;-65
2023/04/20 05:28:39;;;;;;;;;;;;;;;16.73;45.76;100337.88;5441074;32;35045;-79
2023/04/20 05:31:41;;;;;;;;;;;;;;;16.71;45.41;100353.03;5404457;32;44669;-64
2023/04/20 05:34:43;;;;;;;;;;;;;;;16.44;45.84;100355.66;5417479;32;35340;-64
2023/04/20 05:37:46;;;;;;;;;;;;;;;16.13;46.48;100357.59;5435887;32;35735;-78
2023/04/20 05:40:48;;;;;;;;;;;;;;;15.92;48.14;100370.38;5430645;32;35683;-65
2023/04/20 05:43:54;;;;;;;;;;;;;;;16.29;46.98;100368.06;5426676;32;34353;-80
2023/04/20 05:46:56;;;;;;;;;;;;;;;15.59;47.85;100377.69;5420341;32;35800;-69
2023/04/20 05:49:58;;;;;;;;;;;;;;;16.78;45.83;100360.50;5417270;32;34818;-74
2023/04/20 05:53:00;;;;;;;;;;;;;;;16.81;46.13;100370.09;5431233;32;35379;-74
2023/04/20 05:56:02;;;;;;;;;;;;;;;16.81;46.07;100364.78;5426076;32;35477;-69
2023/04/20 05:59:04;;;;;;;;;;;;;;;16.70;46.52;100368.12;5437371;32;35844;-70
2023/04/20 06:02:06;;;;;;;;;;;;;;;16.05;49.04;100374.91;5425008;32;35463;-70
2023/04/20 06:05:09;;;;;;;;;;;;;;;16.55;48.50;100371.75;5429556;32;37028;-69
2023/04/20 06:08:11;;;;;;;;;;;;;;;17.40;45.89;100375.87;5431634;32;43724;-71
2023/04/20 06:11:13;;;;;;;;;;;;;;;16.91;47.01;100370.31;5423836;32;35952;-72
2023/04/20 06:14:15;;;;;;;;;;;;;;;16.63;47.83;100382.72;5438656;32;35377;-70
2023/04/20 06:17:17;;;;;;;;;;;;;;;18.21;43.86;100370.28;5433127;32;34416;-69
2023/04/20 06:20:20;;;;;;;;;;;;;;;19.16;41.95;100369.53;5430745;32;34544;-79
2023/04/20 06:23:21;;;;;;;;;;;;;;;19.04;42.13;100354.47;5432329;32;35409;-76
2023/04/20 06:26:23;;;;;;;;;;;;;;;19.95;38.56;100373.25;5414201;32;34336;-70
2023/04/20 06:29:26;;;;;;;;;;;;;;;19.44;40.20;100378.09;5441869;32;35636;-67
2023/04/20 06:32:27;;;;;;;;;;;;;;;18.50;41.93;100375.34;5425060;32;35400;-70
2023/04/20 06:35:30;;;;;;;;;;;;;;;18.74;40.77;100372.72;5431472;32;33896;-66
2023/04/20 06:38:32;;;;;;;;;;;;;;;19.36;38.96;100386.69;5421275;32;34172;-65
2023/04/20 06:41:34;;;;;;;;;;;;;;;18.37;41.15;100380.69;5408496;32;34284;-66
2023/04/20 06:44:39;;;;;;;;;;;;;;;18.26;41.31;100383.25;5429513;32;34498;-70
2023/04/20 06:47:41;;;;;;;;;;;;;;;18.93;38.93;100384.59;5430719;32;44588;-69
2023/04/20 06:50:46;;;;;;;;;;;;;;;21.81;33.72;100372.25;5439528;32;34311;-69
2023/04/20 06:53:48;;;;;;;;;;;;;;;19.58;36.84;100377.06;5415771;32;34717;-65
2023/04/20 06:56:50;;;;;;;;;;;;;;;20.54;35.71;100374.84;5423349;32;34250;-64
2023/04/20 06:59:53;;;;;;;;;;;;;;;19.70;36.77;100374.31;5416725;32;34277;-79
2023/04/20 07:02:55;;;;;;;;;;;;;;;21.84;33.13;100377.38;5421240;32;34477;-65
2023/04/20 07:05:57;;;;;;;;;;;;;;;20.89;34.94;100379.13;5423240;32;35356;-64
2023/04/20 07:08:59;;;;;;;;;;;;;;;20.14;35.73;100377.16;5425450;32;35297;-64
2023/04/20 07:12:01;;;;;;;;;;;;;;;22.30;32.09;100368.87;5429526;32;34881;-78
2023/04/20 07:15:03;;;;;;;;;;;;;;;21.52;33.60;100378.28;5428523;32;34911;-64
2023/04/20 07:18:05;;;;;;;;;;;;;;;23.44;30.53;100364.78;5433283;32;34932;-64
2023/04/20 07:21:07;;;;;;;;;;;;;;;22.95;31.02;100363.97;5432380;32;35952;-65
2023/04/20 07:24:09;;;;;;;;;;;;;;;21.74;31.71;100377.28;5439502;32;35787;-65
2023/04/20 07:27:11;;;;;;;;;;;;;;;20.10;34.94;100373.03;5439118;32;43248;-79
2023/04/20 07:30:13;;;;;;;;;;;;;;;22.04;32.50;100373.81;5429112;32;34325;-64
2023/04/20 07:33:15;;;;;;;;;;;;;;;21.53;33.51;100379.97;5437842;32;34544;-64
2023/04/20 07:36:18;;;;;;;;;;;;;;;20.55;34.59;100366.72;5426718;32;35032;-65
2023/04/20 07:39:20;;;;;;;;;;;;;;;21.46;33.28;100373.47;5443716;32;35075;-79
2023/04/20 07:42:22;;;;;;;;;;;;;;;22.23;31.20;100361.50;5433608;32;34293;-64
2023/04/20 07:45:24;;;;;;;;;;;;;;;24.55;27.97;100367.56;5439120;32;35783;-80
2023/04/20 07:48:26;;;;;;;;;;;;;;;23.62;29.02;100381.03;5436703;32;34492;-64
2023/04/20 07:51:29;;;;;;;;;;;;;;;21.92;31.33;100388.25;5444450;32;36696;-69
2023/04/20 07:54:31;;;;;;;;;;;;;;;22.25;31.01;100370.25;5436738;32;34401;-62
2023/04/20 07:57:33;;;;;;;;;;;;;;;23.07;29.72;100368.19;5437648;32;36662;-77
2023/04/20 08:00:35;;;;;;;;;;;;;;;22.31;30.14;100381.25;5428472;32;36128;-62
2023/04/20 08:03:37;;;;;;;;;;;;;;;23.72;27.59;100377.34;5436883;32;34454;-62
2023/04/20 08:06:39;;;;;;;;;;;;;;;22.77;29.10;100350.34;5443430;32;34598;-81
2023/04/20 08:09:41;;;;;;;;;;;;;;;22.07;30.22;100365.50;5419347;32;44535;-63
2023/04/20 08:12:43;;;;;;;;;;;;;;;20.98;31.82;100378.38;5436851;32;34147;-61
2023/04/20 08:15:46;;;;;;;;;;;;;;;22.89;29.58;100370.72;5446570;32;33501;-63
2023/04/20 08:18:50;;;;;;;;;;;;;;;23.02;28.86;100369.59;5419697;32;34469;-63
2023/04/20 08:21:53;;;;;;;;;;;;;;;23.36;29.02;100373.53;5448454;32;34219;-72
2023/04/20 08:24:55;;;;;;;;;;;;;;;22.74;28.61;100376.59;5436807;32;33298;-64
2023/04/20 08:27:58;;;;;;;;;;;;;;;22.98;28.52;100369.03;5442812;32;35855;-62
2023/04/20 08:31:00;;;;;;;;;;;;;;;24.16;27.51;100366.88;5417958;32;34421;-73
2023/04/20 08:34:02;;;;;;;;;;;;;;;23.38;27.21;100366.22;5435192;32;35473;-63
2023/04/20 08:37:05;;;;;;;;;;;;;;;24.32;26.79;100348.28;5446729;32;33357;-73
2023/04/20 08:40:10;;;;;;;;;;;;;;;24.70;26.08;100357.12;5421663;32;34845;-63
2023/04/20 08:43:12;;;;;;;;;;;;;;;25.38;25.67;100359.34;5443837;32;45173;-87
2023/04/20 08:46:14;;;;;;;;;;;;;;;24.17;27.00;100351.63;5441176;32;36601;-82
2023/04/20 08:49:16;;;;;;;;;;;;;;;24.03;27.21;100355.63;5433048;32;34545;-80
2023/04/20 08:52:19;;;;;;;;;;;;;;;24.90;25.92;100352.47;5433575;32;34306;-60
2023/04/20 08:55:20;;;;;;;;;;;;;;;24.35;26.69;100349.88;5444826;32;34287;-60
2023/04/20 08:58:31;;;;;;;;;;;;;;;25.57;24.71;100358.31;5434105;32;33481;-72
2023/04/20 09:01:34;;;;;;;;;;;;;;;24.18;26.65;100358.69;5436951;32;35556;-63
2023/04/20 09:04:37;;;;;;;;;;;;;;;26.81;23.00;100356.91;5453021;32;33996;-73
2023/04/20 09:07:39;;;;;;;;;;;;;;;27.49;22.12;100350.38;5444883;32;34320;-66
2023/04/20 09:10:42;;;;;;;;;;;;;;;24.39;25.70;100355.78;5439534;32;44276;-71
2023/04/20 09:13:44;;;;;;;;;;;;;;;25.55;24.42;100360.28;5447347;32;35707;-74
2023/04/20 09:16:50;;;;;;;;;;;;;;;25.21;24.35;100352.97;5425556;32;37812;-65
2023/04/20 09:19:52;;;;;;;;;;;;;;;25.47;25.32;100352.16;5452222;32;35987;-83
2023/04/20 09:22:54;;;;;;;;;;;;;;;24.22;26.67;100358.25;5442064;32;34699;-78
2023/04/20 09:25:57;;;;;;;;;;;;;;;24.23;26.08;100341.13;5445175;32;33127;-81
2023/04/20 09:28:59;;;;;;;;;;;;;;;25.50;23.51;100343.75;5440979;32;35746;-74
2023/04/20 09:32:01;;;;;;;;;;;;;;;24.27;25.25;100347.03;5413884;32;34369;-77
2023/04/20 09:35:05;;;;;;;;;;;;;;;24.24;25.55;100342.81;5443694;32;35877;-65
2023/04/20 09:38:07;;;;;;;;;;;;;;;24.93;24.75;100340.59;5435081;32;35622;-62
2023/04/20 09:41:09;;;;;;;;;;;;;;;25.34;24.07;100347.19;5442736;32;36435;-62
2023/04/20 09:44:12;;;;;;;;;;;;;;;25.67;23.46;100350.94;5436529;32;44751;-75
2023/04/20 09:47:17;;;;;;;;;;;;;;;25.80;23.87;100343.31;5440800;32;34797;-71
2023/04/20 09:50:20;;;;;;;;;;;;;;;26.40;23.24;100339.75;5443822;32;36384;-61
2023/04/20 09:53:33;;;;;;;;;;;;;;;26.32;23.42;100326.22;5442164;32;34138;-70
2023/04/20 09:56:35;;;;;;;;;;;;;;;26.63;22.53;100340.84;5434301;32;34216;-63
2023/04/20 09:59:37;;;;;;;;;;;;;;;26.23;23.22;100338.84;5432373;32;34532;-68
2023/04/20 10:02:39;;;;;;;;;;;;;;;27.00;22.31;100331.47;5429742;32;34450;-67
2023/04/20 10:05:41;;;;;;;;;;;;;;;29.14;20.19;100326.91;5424066;32;43225;-61
2023/04/20 10:08:43;;;;;;;;;;;;;;;25.21;24.57;100334.12;5439257;32;34444;-62
2023/04/20 10:11:45;;;;;;;;;;;;;;;28.57;20.75;100316.47;5450525;32;35357;-62
2023/04/20 10:15:00;;;;;;;;;;;;;;;29.32;19.81;100314.94;5441326;32;35579;-75
2023/04/20 10:18:02;;;;;;;;;;;;;;;28.53;21.38;100317.84;5447920;32;34217;-60
2023/04/20 10:21:05;;;;;;;;;;;;;;;28.25;21.25;100311.19;5423051;32;35324;-70
2023/04/20 10:24:07;;;;;;;;;;;;;;;23.81;26.19;100329.16;5446285;32;34452;-73
2023/04/20 10:27:16;;;;;;;;;;;;;;;23.59;26.49;100323.12;5439641;32;35978;-68
2023/04/20 10:30:19;;;;;;;;;;;;;;;24.29;25.86;100318.22;5420012;32;46815;-72
2023/04/20 10:33:21;;;;;;;;;;;;;;;23.97;25.99;100332.91;5422382;32;34306;-61
2023/04/20 10:36:24;;;;;;;;;;;;;;;25.75;24.10;100318.72;5439163;32;35487;-61
2023/04/20 10:39:28;;;;;;;;;;;;;;;27.47;21.91;100307.38;5440562;32;35723;-61
2023/04/20 10:42:40;;;;;;;;;;;;;;;27.72;21.72;100302.78;5437186;32;34279;-71
2023/04/20 10:45:42;;;;;;;;;;;;;;;28.98;20.18;100291.87;5426149;32;44377;-60
2023/04/20 10:49:00;;;;;;;;;;;;;;;25.82;23.83;100300.94;5446380;32;36889;-61
2023/04/20 10:52:02;;;;;;;;;;;;;;;26.69;22.64;100293.53;5440340;32;35913;-71
2023/04/20 10:55:05;;;;;;;;;;;;;;;22.01;28.75;100315.19;5448877;32;34439;-61
2023/04/20 10:58:07;;;;;;;;;;;;;;;23.17;27.54;100302.00;5445066;32;34544;-64
2023/04/20 11:01:09;;;;;;;;;;;;;;;25.32;24.81;100296.25;5439545;32;34210;-74
2023/04/20 11:04:12;;;;;;;;;;;;;;;26.58;22.73;100270.41;5432333;32;44653;-64
2023/04/20 11:07:16;;;;;;;;;;;;;;;27.12;22.39;100278.91;5406954;32;34143;-64
2023/04/20 11:10:22;;;;;;;;;;;;;;;26.88;22.14;100277.03;5444853;32;35473;-67
2023/04/20 11:13:27;;;;;;;;;;;;;;;22.97;27.12;100286.94;5412754;32;34651;-69
2023/04/20 11:16:29;;;;;;;;;;;;;;;24.34;25.04;100285.53;5425845;32;35648;-64
2023/04/20 11:19:50;;;;;;;;;;;;;;;22.76;27.28;100288.88;5433535;32;44439;-75
2023/04/20 11:22:56;;;;;;;;;;;;;;;21.21;29.45;100291.78;5438531;32;34234;-69
2023/04/20 11:26:00;;;;;;;;;;;;;;;22.05;28.34;100292.53;5444433;32;33505;-61
2023/04/20 11:29:02;;;;;;;;;;;;;;;22.44;28.38;100273.91;5429607;32;35946;-82
2023/04/20 11:32:05;;;;;;;;;;;;;;;25.75;23.32;100269.44;5427903;32;34898;-62
2023/04/20 11:35:09;;;;;;;;;;;;;;;26.90;21.74;100255.28;5425893;32;35450;-71
2023/04/20 11:38:12;;;;;;;;;;;;;;;27.48;21.39;100255.06;5428347;32;45538;-76
2023/04/20 11:41:15;;;;;;;;;;;;;;;26.70;21.78;100249.38;5444843;32;34349;-67
2023/04/20 11:44:19;;;;;;;;;;;;;;;23.86;25.12;100268.69;5422781;32;34102;-66
2023/04/20 11:47:22;;;;;;;;;;;;;;;22.95;26.80;100272.84;5447327;32;34513;-68
2023/04/20 11:50:24;;;;;;;;;;;;;;;22.19;27.83;100269.91;5437336;32;35745;-77
2023/04/20 11:53:26;;;;;;;;;;;;;;;22.58;27.72;100270.81;5436652;32;35718;-64
2023/04/20 11:56:27;;;;;;;;;;;;;;;24.49;24.06;100262.56;5437360;32;34257;-63
2023/04/20 11:59:29;;;;;;;;;;;;;;;23.04;24.88;100274.66;5423556;32;34719;-61
2023/04/20 12:02:32;;;;;;;;;;;;;;;21.84;26.70;100273.03;5439157;32;34126;-64
2023/04/20 12:05:34;;;;;;;;;;;;;;;21.67;27.36;100276.31;5423860;32;35405;-62
2023/04/20 12:08:36;;;;;;;;;;;;;;;21.04;28.65;100282.53;5420221;32;36105;-66
2023/04/20 12:11:38;;;;;;;;;;;;;;;21.76;27.63;100272.84;5440557;32;35777;-64
2023/04/20 12:14:40;;;;;;;;;;;;;;;21.56;27.62;100274.56;5436434;32;34919;-77
2023/04/20 12:17:42;;;;;;;;;;;;;;;24.77;23.23;100248.03;5436200;32;34316;-72
2023/04/20 12:20:45;;;;;;;;;;;;;;;27.61;19.90;100242.88;5444435;32;34620;-71
2023/04/20 12:23:49;;;;;;;;;;;;;;;27.24;19.41;100241.63;5435879;32;34931;-70
2023/04/20 12:26:51;;;;;;;;;;;;;;;27.75;19.46;100244.88;5430865;32;34155;-71
2023/04/20 12:29:54;;;;;;;;;;;;;;;28.77;18.38;100242.97;5410750;32;34329;-69
2023/04/20 12:32:56;;;;;;;;;;;;;;;26.35;21.58;100248.62;5424810;32;33687;-68
2023/04/20 12:35:58;;;;;;;;;;;;;;;23.45;25.06;100248.47;5446971;32;34237;-70
2023/04/20 12:39:00;;;;;;;;;;;;;;;22.74;25.66;100242.66;5433352;32;34856;-65
2023/04/20 12:42:03;;;;;;;;;;;;;;;24.95;22.98;100239.12;5439948;32;35769;-73
2023/04/20 12:45:05;;;;;;;;;;;;;;;28.79;18.97;100228.28;5434327;32;36326;-76
2023/04/20 12:48:07;;;;;;;;;;;;;;;28.75;18.18;100231.50;5431613;32;34916;-75
2023/04/20 12:51:09;;;;;;;;;;;;;;;26.73;19.43;100235.56;5433860;32;34073;-70
2023/04/20 12:54:11;;;;;;;;;;;;;;;26.61;19.75;100228.84;5440474;32;46051;-68
2023/04/20 12:57:13;;;;;;;;;;;;;;;24.58;21.82;100238.28;5449034;32;34682;-69
2023/04/20 13:00:15;;;;;;;;;;;;;;;24.80;21.85;100220.84;5421694;32;35906;-70
2023/04/20 13:03:17;;;;;;;;;;;;;;;24.22;22.81;100226.66;5431206;32;35880;-67
2023/04/20 13:06:19;;;;;;;;;;;;;;;25.19;21.54;100231.25;5444056;32;34474;-74
2023/04/20 13:09:25;;;;;;;;;;;;;;;25.40;21.49;100212.06;5427015;32;34673;-78
2023/04/20 13:12:28;;;;;;;;;;;;;;;23.28;24.14;100214.38;5450056;32;34299;-66
2023/04/20 13:15:30;;;;;;;;;;;;;;;23.63;23.88;100219.06;5429938;32;34232;-60
2023/04/20 13:18:40;;;;;;;;;;;;;;;23.42;24.58;100217.41;5443193;32;36527;-73
2023/04/20 13:21:42;;;;;;;;;;;;;;;22.73;25.47;100217.66;5441476;32;34809;-70
2023/04/20 13:24:44;;;;;;;;;;;;;;;21.78;26.37;100214.72;5441669;32;34748;-63
2023/04/20 13:27:47;;;;;;;;;;;;;;;22.16;26.01;100214.84;5409193;32;33491;-75
2023/04/20 13:30:49;;;;;;;;;;;;;;;22.65;25.48;100212.19;5419271;32;34505;-74
2023/04/20 13:33:54;;;;;;;;;;;;;;;22.60;24.67;100212.59;5437774;32;34302;-73
2023/04/20 13:36:57;;;;;;;;;;;;;;;23.51;24.09;100205.81;5436764;32;34437;-64
2023/04/20 13:39:59;;;;;;;;;;;;;;;23.08;24.69;100202.84;5429140;32;34341;-71
2023/04/20 13:43:01;;;;;;;;;;;;;;;23.48;24.38;100199.91;5433902;32;34485;-68
2023/04/20 13:46:03;;;;;;;;;;;;;;;22.62;25.11;100207.97;5442075;32;35568;-65
2023/04/20 13:49:04;;;;;;;;;;;;;;;23.34;24.26;100192.34;5430855;32;35118;-59
2023/04/20 13:52:06;;;;;;;;;;;;;;;23.11;24.82;100195.34;5439543;32;34436;-71
2023/04/20 13:55:09;;;;;;;;;;;;;;;22.68;25.05;100201.19;5431142;32;34264;-61
2023/04/20 13:58:11;;;;;;;;;;;;;;;22.35;25.59;100197.13;5437335;32;44301;-63
2023/04/20 14:01:15;;;;;;;;;;;;;;;22.03;26.17;100200.00;5437965;32;34246;-65
2023/04/20 14:04:17;;;;;;;;;;;;;;;21.77;26.41;100192.47;5420264;32;35913;-70
2023/04/20 14:07:19;;;;;;;;;;;;;;;22.00;26.08;100195.75;5421892;32;34371;-65
2023/04/20 14:10:21;;;;;;;;;;;;;;;22.29;25.75;100192.31;5412720;32;1023704;-74
2023/04/20 14:13:23;;;;;;;;;;;;;;;22.26;25.27;100190.75;5415906;32;34415;-69
2023/04/20 14:16:25;;;;;;;;;;;;;;;21.54;25.93;100183.78;5424221;32;35862;-75
2023/04/20 14:19:28;;;;;;;;;;;;;;;21.62;25.99;100183.97;5434969;32;34417;-61
2023/04/20 14:22:34;;;;;;;;;;;;;;;21.94;25.62;100174.88;5437252;32;35528;-62
2023/04/20 14:25:36;;;;;;;;;;;;;;;22.88;24.19;100172.56;5420254;32;34210;-61
2023/04/20 14:28:38;;;;;;;;;;;;;;;22.38;25.22;100172.72;5418503;32;34662;-79
2023/04/20 14:31:40;;;;;;;;;;;;;;;21.46;25.98;100175.59;5414834;32;43360;-61
2023/04/20 14:34:42;;;;;;;;;;;;;;;22.31;25.31;100172.44;5421477;32;35364;-75
2023/04/20 14:37:44;;;;;;;;;;;;;;;22.71;24.45;100169.59;5443956;32;34255;-61
2023/04/20 14:40:47;;;;;;;;;;;;;;;23.37;23.69;100165.22;5431887;32;35493;-62
2023/04/20 14:43:49;;;;;;;;;;;;;;;22.91;24.21;100165.06;5441998;32;34496;-62
2023/04/20 14:46:51;;;;;;;;;;;;;;;22.63;24.41;100150.72;5433237;32;35085;-75
2023/04/20 14:49:53;;;;;;;;;;;;;;;22.03;24.91;100163.38;5435566;32;34312;-76
2023/04/20 14:52:55;;;;;;;;;;;;;;;23.04;23.62;100166.59;5427237;32;35646;-62
2023/04/20 14:55:57;;;;;;;;;;;;;;;21.92;24.77;100158.13;5433098;32;34560;-77
2023/04/20 14:59:00;;;;;;;;;;;;;;;23.08;24.11;100152.78;5434727;32;34523;-84
2023/04/20 15:02:02;;;;;;;;;;;;;;;23.22;24.30;100149.59;5429329;32;34986;-84
2023/04/20 15:05:05;;;;;;;;;;;;;;;22.97;25.21;100144.91;5437290;32;34333;-62
2023/04/20 15:08:11;;;;;;;;;;;;;;;21.78;26.71;100153.19;5442308;32;46213;-83
2023/04/20 15:11:13;;;;;;;;;;;;;;;22.58;25.53;100158.34;5442549;32;34829;-61
2023/04/20 15:14:15;;;;;;;;;;;;;;;22.07;26.19;100156.75;5454027;32;34914;-83
2023/04/20 15:17:17;;;;;;;;;;;;;;;22.29;26.16;100157.50;5434035;32;35275;-84
2023/04/20 15:20:20;;;;;;;;;;;;;;;21.93;26.50;100150.97;5451112;32;35409;-68
2023/04/20 15:23:22;;;;;;;;;;;;;;;22.51;25.49;100157.22;5433662;32;35402;-84
2023/04/20 15:26:24;;;;;;;;;;;;;;;22.89;25.32;100150.97;5442919;32;35081;-74
2023/04/20 15:29:26;;;;;;;;;;;;;;;23.58;24.14;100144.38;5425057;32;34472;-63
2023/04/20 15:32:32;;;;;;;;;;;;;;;22.33;25.54;100141.00;5427125;32;35030;-62
2023/04/20 15:35:34;;;;;;;;;;;;;;;22.49;25.62;100161.88;5447800;32;34303;-74